logo
App data

10 Second Ninja X

10 SECOND NINJA X is a hardcore sidescroller. You're a ninja, there are robots, you've got ten seconds to destroy them all. Get three star ratings, climb leaderboards, discover secrets and stop Captain Greatbeard.
Store | Hub | SteamDB | Site
Developer: Four Circle Interactive Publisher: Curve Digital
Genre: Action, Indie
Languages: English, French, German, Spanish - Spain, Russian
Tags: Action (64), Indie (57), Platformer (38), Puzzle-Platformer (24), Difficult (20), Fast-Paced (13), Ninja (11), 2D (9)
Category: Single-player, Steam Achievements, Full controller support, Steam Trading Cards, Steam Leaderboards, Remote Play on TV
Release date: Jul 19, 2016
Price: $0.99 90%
Old userscore: 82% Owners: 200,000 .. 500,000
Followers: 1,916
Peak concurrent players yesterday: 59
YouTube stats: 4,396 views and 71 comments for top 50 videos uploaded last week, 1 new videos uploaded yesterday.
Playtime total: 00:34 (average) 00:47 (median)

Steam Spy is still in beta, so expect major bugs.

Owners data:

Access restricted.

This feature is only available to users with special access rights. Sorry.

If you want to proceed, you need to register or log in first and then back Steam Spy on Patreon. Look for Indie or Pro pledge.

Don't forget to use the same email as on Steam Spy!

Audience in 2 weeks:

Access restricted.

This feature is only available to users with special access rights. Sorry.

If you want to proceed, you need to register or log in first and then back Steam Spy on Patreon. Look for Indie or Pro pledge.

Don't forget to use the same email as on Steam Spy!

Peak daily concurrent players:

CCU data courtesy of SteamDB. Used with permission.

Hourly concurrent players:

Daily Twitch stats:

Hourly Twitch stats:

Followers over time

Access restricted.

This feature is only available to users with special access rights. Sorry.

If you want to proceed, you need to register or log in first and then back Steam Spy on Patreon. Look for Indie or Pro pledge.

Don't forget to use the same email as on Steam Spy!

Views for top 50 videos on YouTube for this game:

Games similar to this one:

# Game Release date
Price
Score rank
(Userscore / Metascore)
Owners
Players
Playtime (Median)
1 Pulstar Jun 11, 2014 $0.67N/A (N/A)20,000 .. 50,0000%00:00 (00:00)
2 Montague's Mount Nov 19, 2013 $4.99N/A (N/A/39%)20,000 .. 50,0000%00:00 (00:00)
3 Imagine Earth May 2014 $12.99N/A (N/A)20,000 .. 50,0000%00:00 (00:00)
4 Ballpoint Universe - Infinite Dec 17, 2013 $3.99N/A (N/A)50,000 .. 100,0000%00:00 (00:00)
5 Munin Jun 10, 2014 $0.49N/A (N/A/68%)100,000 .. 200,0000%00:00 (00:00)
6 STARWHAL Sep 29, 2014 $11.99N/A (N/A)50,000 .. 100,0000%00:00 (00:00)
7 The Novelist Dec 10, 2013 $0.99N/A (N/A/66%)100,000 .. 200,0000%00:00 (00:00)
8 Full Bore May 6, 2014 $2.99N/A (N/A/72%)20,000 .. 50,0000%00:00 (00:00)
9 Omegalodon Mar 9, 2012 $2.49N/A (N/A)20,000 .. 50,0000%00:00 (00:00)
10 Montas Mar 24, 2014 $9.99N/A (N/A)0 .. 20,0000%00:00 (00:00)
11 Solar Flux Oct 24, 2013 $9.99N/A (N/A)100,000 .. 200,0000%00:00 (00:00)
12 Jones On Fire Mar 27, 2015 $1.49N/A (N/A)50,000 .. 100,0000%00:00 (00:00)
13 FOTONICA Nov 6, 2014 $1.49N/A (N/A/71%)50,000 .. 100,0000%00:00 (00:00)
14 10 Second Ninja Mar 5, 2014 $0.99N/A (N/A/72%)50,000 .. 100,0000%00:00 (00:00)
15 Escape Goat 2 Mar 24, 2014 $3.99N/A (N/A/76%)50,000 .. 100,0000%00:00 (00:00)
16 Labyrinthine Dreams May 26, 2015 $0.49N/A (N/A)20,000 .. 50,0000%00:00 (00:00)
17 Survivor Squad Nov 8, 2013 $0.59N/A (N/A)100,000 .. 200,0000%00:00 (00:00)
18 Karma Miwa Aug 12, 2016 $0.99N/A (N/A)20,000 .. 50,0000%00:00 (00:00)
19 Please, Don't Touch Anything 3D Dec 7, 2016 $4.49N/A (N/A)20,000 .. 50,0000%00:00 (00:00)
20 Super Duper Party Pooper Jun 6, 2016 $0.49N/A (N/A/40%)100,000 .. 200,0000%00:00 (00:00)
21 mr.President Prologue Episode Sep 20, 2016 $0.49N/A (N/A)20,000 .. 50,0000%00:00 (00:00)
22 DashBored Jun 13, 2016 $1.74N/A (N/A)20,000 .. 50,0000%00:00 (00:00)
23 Snake Pass Mar 28, 2017 $5.99N/A (N/A/71%)200,000 .. 500,0005.66%03:58 (01:59)
24 You Deserve Aug 19, 2016 $0.49N/A (N/A)20,000 .. 50,0000%00:00 (00:00)
25 New Retro Arcade: Neon Aug 1, 2016 $13.39N/A (N/A)0 .. 20,0000%00:00 (00:00)
26 Dinosaur Forest May 17, 2017 $0.49N/A (N/A)50,000 .. 100,0000%00:00 (00:00)
27 The Nest Jun 14, 2016 FreeN/A (N/A)0 .. 20,0000%00:00 (00:00)
28 Showdown Adventure Sep 23, 2016 $2.99N/A (N/A)0 .. 20,0000%00:00 (00:00)
29 Scanner Sombre Apr 26, 2017 $1.19N/A (N/A/67%)100,000 .. 200,0000%00:00 (00:00)
30 Joana's Life Sep 1, 2016 $2.99N/A (N/A)50,000 .. 100,0000%00:00 (00:00)
31 Star Drifter Jun 1, 2016 $0.49N/A (N/A)200,000 .. 500,0000%00:00 (00:00)
32 It Comes Around - A Kinetic Novel Sep 29, 2016 $2.99N/A (N/A)20,000 .. 50,0000%00:00 (00:00)
33 Call Of The Mighty Warriors Mar 1, 2019 $0.49N/A (N/A)20,000 .. 50,0000%00:00 (00:00)
34 Starship Annihilator Sep 2, 2016 $0.49N/A (N/A)50,000 .. 100,0000%00:00 (00:00)
35 Fancy Skulls Jun 16, 2014 $8.99N/A (N/A)20,000 .. 50,0000%00:00 (00:00)
36 Cosmochoria Apr 27, 2015 $9.99N/A (N/A)20,000 .. 50,0000%00:00 (00:00)
37 Back to Bed Aug 6, 2014 $1.19N/A (N/A)500,000 .. 1,000,0001.82%00:48 (00:16)
38 The Promised Land Jul 11, 2012 $0.69N/A (N/A)20,000 .. 50,0000%00:00 (00:00)
39 Mega Coin Squad Aug 15, 2014 $5.99N/A (N/A/56%)0 .. 20,0000%00:00 (00:00)
40 TownCraft Feb 25, 2015 $9.99N/A (N/A)0 .. 20,0000%00:00 (00:00)
41 Rabbit Hole 3D: Steam Edition Apr 25, 2014 $1.01N/A (N/A)50,000 .. 100,0000%00:00 (00:00)
42 Dreaming Sarah Mar 12, 2015 $0.59N/A (N/A)100,000 .. 200,0000%00:00 (00:00)
43 ReignMaker Apr 16, 2014 $14.99N/A (N/A)50,000 .. 100,0000%00:00 (00:00)
44 Frederic: Evil Strikes Back May 23, 2014 $0.79N/A (N/A)50,000 .. 100,0000%00:00 (00:00)
45 Autocraft Sep 20, 2017 $2.49N/A (N/A)20,000 .. 50,0000%00:00 (00:00)
46 Rhythm Destruction Jun 16, 2014 $4.99N/A (N/A)50,000 .. 100,0000%00:00 (00:00)
47 Volt Apr 14, 2014 $0.99N/A (N/A)50,000 .. 100,0000%00:00 (00:00)
48 TRISTOY Jan 15, 2015 $1.39N/A (N/A/49%)20,000 .. 50,0000%00:00 (00:00)
49 Three Dead Zed Jul 7, 2014 $5.99N/A (N/A)50,000 .. 100,00014.29%03:08 (01:02)
50 Concursion Jun 6, 2014 $0.99N/A (N/A/66%)20,000 .. 50,0000%00:00 (00:00)
51 Uriel's Chasm Sep 12, 2014 $0.74N/A (N/A)200,000 .. 500,0000%00:00 (00:00)
52 Three Kingdoms The Last Warlord | 三國志漢末霸業 May 26, 2017 $6.79N/A (N/A)20,000 .. 50,0000%00:00 (00:00)
53 GORN Jul 18, 2019 $9.99N/A (N/A/85%)200,000 .. 500,0000%00:00 (00:00)
54 Guns of Icarus Alliance Mar 31, 2017 $0.74N/A (N/A)50,000 .. 100,0000%00:00 (00:00)
55 The Archotek Project Apr 28, 2017 $0.99N/A (N/A)200,000 .. 500,0001.14%276:59 (95:49)
56 Wayout Nov 4, 2016 $0.49N/A (N/A)50,000 .. 100,0000%00:00 (00:00)
57 Witch It May 31, 2017 $7.49N/A (N/A)200,000 .. 500,0006.25%02:29 (02:28)
58 Introvert Quest Mar 15, 2017 $0.49N/A (N/A)100,000 .. 200,0000%00:00 (00:00)
59 Child Phobia: Nightcoming Fears Dec 20, 2016 $1.99N/A (N/A)20,000 .. 50,0000%00:00 (00:00)
60 Mistwood Heroes Dec 30, 2016 $0.49N/A (N/A)20,000 .. 50,0000%00:00 (00:00)
61 On A Roll 3D Feb 12, 2015 $1.99N/A (N/A)50,000 .. 100,0000%00:00 (00:00)
62 Horizon Shift May 29, 2015 $0.99N/A (N/A)100,000 .. 200,0000%00:00 (00:00)
63 Glorkian Warrior: The Trials Of Glork Mar 24, 2015 $1.35N/A (N/A)20,000 .. 50,0000%00:00 (00:00)
64 The Deer God Feb 27, 2015 $7.49N/A (N/A/59%)20,000 .. 50,0000%00:00 (00:00)
65 Countless Rooms of Death Jan 9, 2015 $0.99N/A (N/A)20,000 .. 50,0000%00:00 (00:00)
66 Tulpa Jan 29, 2015 $2.99N/A (N/A)50,000 .. 100,0000%00:00 (00:00)
67 Hangeki Aug 11, 2014 $4.99N/A (N/A)0 .. 20,0000%00:00 (00:00)
68 Phoenix Force Nov 13, 2014 $0.79N/A (N/A)50,000 .. 100,0000%00:00 (00:00)
69 Velocibox Sep 8, 2014 $2.49N/A (N/A)50,000 .. 100,0000%00:00 (00:00)
70 Dwarf Tower Dec 23, 2014 $0.99N/A (N/A)20,000 .. 50,0000%00:00 (00:00)
71 Squishy the Suicidal Pig Oct 23, 2014 $0.59N/A (N/A)200,000 .. 500,0000%00:00 (00:00)
72 Chronicles of a Dark Lord: Episode 1 Tides of Fate Complete Dec 19, 2014 N/AN/A (N/A)50,000 .. 100,0000%00:00 (00:00)
73 Great Permutator Sep 15, 2014 $1.04N/A (N/A)20,000 .. 50,0000%00:00 (00:00)
74 Bermuda Mar 17, 2015 $2.99N/A (N/A)50,000 .. 100,0000%00:00 (00:00)
75 Ninja Pizza Girl Sep 30, 2015 $1.74N/A (N/A/82%)50,000 .. 100,0000%00:00 (00:00)
76 TIMEframe Jul 7, 2015 $2.99N/A (N/A)50,000 .. 100,0000%00:00 (00:00)
77 Disorder Jan 12, 2015 $3.99N/A (N/A/61%)20,000 .. 50,0000%00:00 (00:00)
78 Polyball Dec 1, 2017 $1.49N/A (N/A)100,000 .. 200,0001.52%00:26 (00:17)
79 Orbit HD Mar 18, 2015 $0.99N/A (N/A)20,000 .. 50,0000%00:00 (00:00)
80 Pizza Express Jun 25, 2015 $0.69N/A (N/A)20,000 .. 50,0000%00:00 (00:00)
81 Inside My Radio May 11, 2015 $2.99N/A (N/A/68%)20,000 .. 50,0000%00:00 (00:00)
82 The Adventures of Mr. Bobley Jul 1, 2015 $0.99N/A (N/A)50,000 .. 100,0000%00:00 (00:00)
83 Luckslinger Jul 16, 2015 $9.99N/A (N/A/76%)20,000 .. 50,0000%00:00 (00:00)
84 It came from space and ate our brains Mar 19, 2015 $11.24N/A (N/A)200,000 .. 500,0000%00:00 (00:00)
85 Canabalt Apr 30, 2015 $1.19N/A (N/A)20,000 .. 50,0000%00:00 (00:00)
86 Disillusions Manga Horror Apr 6, 2013 $0.99N/A (N/A)20,000 .. 50,0000%00:00 (00:00)
87 Hare In The Hat Apr 1, 2015 $1.19N/A (N/A)50,000 .. 100,0000%00:00 (00:00)
88 Rats - Time is running out! Aug 19, 2015 $4.99N/A (N/A)20,000 .. 50,0000%00:00 (00:00)
89 Spellsworn Mar 13, 2018 FreeN/A (N/A)100,000 .. 200,0005.56%00:12 (00:04)
90 Bunker - The Underground Game May 21, 2015 $0.79N/A (N/A/70%)0 .. 20,0000%00:00 (00:00)
91 Luna Sky Oct 2, 2015 $12.99N/A (N/A)50,000 .. 100,0000%00:00 (00:00)
92 Leo’s Fortune - HD Edition Sep 8, 2015 $3.49N/A (N/A)0 .. 20,0000%00:00 (00:00)
93 Interstellar Rift Jun 23, 2015 $12.72N/A (N/A)50,000 .. 100,0000%00:00 (00:00)
94 Beyond Eyes Aug 11, 2015 $2.99N/A (N/A/60%)100,000 .. 200,0000%00:00 (00:00)
95 All Zombies Must Die!: Scorepocalypse Apr 19, 2012 $4.99N/A (N/A)20,000 .. 50,0000%00:00 (00:00)
96 Zack Zero Apr 29, 2013 $2.99N/A (N/A)50,000 .. 100,0000%00:00 (00:00)
97 Unmechanical Aug 8, 2012 $4.99N/A (N/A/74%)100,000 .. 200,0000%00:00 (00:00)
98 Element4l May 24, 2013 $8.99N/A (N/A/77%)50,000 .. 100,0000%00:00 (00:00)
99 Sugar Cube: Bittersweet Factory Nov 7, 2012 $1.74N/A (N/A)20,000 .. 50,0000%00:00 (00:00)
100 Poöf Nov 8, 2013 $6.99N/A (N/A)20,000 .. 50,0000%00:00 (00:00)
101 Home Jun 1, 2012 $0.99N/A (N/A/69%)200,000 .. 500,0000%00:00 (00:00)
102 BIT.TRIP BEAT Nov 2, 2010 $3.99N/A (N/A)200,000 .. 500,0000%00:00 (00:00)
103 Puddle Nov 9, 2012 $7.99N/A (N/A)50,000 .. 100,0000%00:00 (00:00)
104 Super Splatters Jun 26, 2013 N/AN/A (N/A/73%)50,000 .. 100,0000%00:00 (00:00)
105 Papo & Yo Apr 18, 2013 $8.99N/A (N/A/70%)20,000 .. 50,0000%00:00 (00:00)
106 SOL: Exodus Jan 25, 2012 $7.99N/A (N/A/57%)50,000 .. 100,0000%00:00 (00:00)
107 Dream Jul 31, 2015 $1.79N/A (N/A/59%)50,000 .. 100,0000%00:00 (00:00)
108 Titan Attacks! Feb 3, 2012 $4.99N/A (N/A)50,000 .. 100,0000%00:00 (00:00)
109 Godus At some point $14.99N/A (N/A)50,000 .. 100,0000%00:00 (00:00)
110 Tales From Space: Mutant Blobs Attack Aug 15, 2012 $2.49N/A (N/A/83%)100,000 .. 200,0000%00:00 (00:00)
111 Wake At some point $4.99N/A (N/A)0 .. 20,0000%00:00 (00:00)
112 Kitchen Simulator 2015 Sep 2, 2015 $0.49N/A (N/A)20,000 .. 50,0000%00:00 (00:00)
113 Stray Cat Crossing Aug 28, 2015 $2.99N/A (N/A)20,000 .. 50,0000%00:00 (00:00)
114 Press X to Not Die Oct 6, 2017 $0.74N/A (N/A)50,000 .. 100,0000%00:00 (00:00)
115 Earth Overclocked Dec 4, 2015 $0.99N/A (N/A)20,000 .. 50,0000%00:00 (00:00)
116 1,000 Heads Among the Trees Dec 11, 2015 $0.99N/A (N/A)100,000 .. 200,0000%00:00 (00:00)
117 iZBOT Sep 1, 2015 $11.99N/A (N/A)20,000 .. 50,0000%00:00 (00:00)
118 Monument Jun 5, 2015 $0.71N/A (N/A)100,000 .. 200,0000%00:00 (00:00)
119 Redemption: Eternal Quest Aug 28, 2015 $0.79N/A (N/A)100,000 .. 200,0000%00:00 (00:00)
120 Western Press Apr 21, 2016 $0.99N/A (N/A)20,000 .. 50,0000%00:00 (00:00)
121 Void Invaders Aug 14, 2015 $0.5N/A (N/A)20,000 .. 50,0000%00:00 (00:00)
122 Sky Rogue Aug 24, 2017 $9.99N/A (N/A)20,000 .. 50,0000%00:00 (00:00)
123 Blaster Shooter GunGuy! Aug 10, 2015 $0.49N/A (N/A)50,000 .. 100,0000%00:00 (00:00)
124 Action Alien Jun 26, 2015 $3.59N/A (N/A)50,000 .. 100,0000%00:00 (00:00)
125 Wild Island Quest Sep 4, 2015 $0.49N/A (N/A)50,000 .. 100,0000%00:00 (00:00)
126 Aviary Attorney Dec 21, 2015 $14.99N/A (N/A/77%)50,000 .. 100,0000%00:00 (00:00)
127 Shmadow Nov 3, 2015 $1.99N/A (N/A)20,000 .. 50,0000%00:00 (00:00)
128 none Nov 4, 2015 N/AN/A (N/A)20,000 .. 50,0000%00:00 (00:00)
129 Emerge: Cities of the Apocalypse Apr 27, 2016 $1.19N/A (N/A)50,000 .. 100,0000%00:00 (00:00)
130 Empire of the Gods Jan 27, 2016 $0.99N/A (N/A)20,000 .. 50,0000%00:00 (00:00)
131 Wrath of Anna Apr 2, 2018 $6.99N/A (N/A)50,000 .. 100,0000%00:00 (00:00)
132 Mindless Running Feb 18, 2016 $0.49N/A (N/A)20,000 .. 50,0000%00:00 (00:00)
133 NORTH Apr 27, 2016 $0.49N/A (N/A)200,000 .. 500,0000%00:00 (00:00)
134 Mimpi Dreams Mar 22, 2016 FreeN/A (N/A)50,000 .. 100,0000%00:00 (00:00)
135 Perraw - FPS Clone War Alpha Jan 29, 2016 $0.59N/A (N/A)0 .. 20,0000%00:00 (00:00)
136 Yon Paradox May 6, 2016 $0.5N/A (N/A)0 .. 20,0000%00:00 (00:00)
137 Godus Wars Feb 3, 2016 $14.99N/A (N/A)50,000 .. 100,0000%00:00 (00:00)
138 Cube Land Arena Mar 8, 2019 $0.49N/A (N/A)50,000 .. 100,0000%00:00 (00:00)
139 Bell Ringer Mar 18, 2016 $6.99N/A (N/A)200,000 .. 500,0000%00:00 (00:00)
140 Hero Quest: Tower Conflict Apr 13, 2016 $0.49N/A (N/A)200,000 .. 500,0000%00:00 (00:00)
141 PERFECT ANGLE: The puzzle game based on optical illusions Dec 22, 2015 $2.49N/A (N/A)50,000 .. 100,0000%00:00 (00:00)
142 CrazyCars3D Jun 14, 2016 $2.09N/A (N/A)50,000 .. 100,0000%00:00 (00:00)
143 Doodle Kingdom Jun 9, 2016 $2.6N/A (N/A)20,000 .. 50,0000%00:00 (00:00)
144 Domino Sky Apr 5, 2016 $1.39N/A (N/A)50,000 .. 100,0000%00:00 (00:00)
145 Rencounter Nov 4, 2016 $0.59N/A (N/A)20,000 .. 50,0000%00:00 (00:00)

Tags over time:

Access restricted.

This feature is only available to users with special access rights. Sorry.

If you want to proceed, you need to register or log in first and then back Steam Spy on Patreon. Look for Indie or Pro pledge.

Don't forget to use the same email as on Steam Spy!

Owners of this game also own:

Access restricted.

This feature is only available to users with special access rights. Sorry.

If you want to proceed, you need to register or log in first and then back Steam Spy on Patreon. Look for Indie or Pro pledge.

Don't forget to use the same email as on Steam Spy!

Playtime distribution:

Access restricted.

This feature is only available to users with special access rights. Sorry.

If you want to proceed, you need to register or log in first and then back Steam Spy on Patreon. Look for Indie or Pro pledge.

Don't forget to use the same email as on Steam Spy!

Playtime (2 weeks):

Access restricted.

This feature is only available to users with special access rights. Sorry.

If you want to proceed, you need to register or log in first and then back Steam Spy on Patreon. Look for Indie or Pro pledge.

Don't forget to use the same email as on Steam Spy!

User reviews:

Login required.

Please register or log in to see this information.